Cosco Nagoya — 3ESJ8 — position and weather

sailwx.info

Track history (hours):
 
Tides and Currents Weather Stations Pressure Air Temp Water Temp Dewpoint Dewpoint Depression Visibility Wind Speed Wind Dir Waves Ship Positions

Cosco Nagoya

Last reported at 2014-Oct-16 05:26 UTC. Time now 2014-Oct-20 13:10 UTC.
Position N 36°48' W 075°43'.

Length 260 m; draft 11.3 m.

Type: Ship (hazmat cat A). MMSI: 370320000.

Date/timePositionNaut miles runAvg speedWind from/ knotsBaromVisibWave heightAir tempDewpointWater temp
2014-Oct-16 05:26N 36°48' W 075°43'1416.4
2014-Oct-16 04:33N 36°56' W 075°58'1414.2
2014-Oct-16 03:33N 37°00' W 076°15'7 6.6
2014-Oct-16 02:29N 36°55' W 076°20'0 0.0
2014-Oct-16 01:29N 36°55' W 076°20'0 0.0
2014-Oct-15 23:32N 36°55' W 076°20'0 0.0
2014-Oct-15 22:20N 36°55' W 076°20'0 0.0
2014-Oct-15 20:23N 36°55' W 076°20'0 0.0
2014-Oct-15 19:20N 36°55' W 076°20'0 0.0
2014-Oct-15 18:20N 36°55' W 076°20'0 0.0
2014-Oct-15 12:32N 36°55' W 076°20'0 0.0
2014-Oct-15 10:26N 36°55' W 076°20'3 3.7
2014-Oct-15 09:32N 36°58' W 076°20'1413.7
2014-Oct-15 08:32N 36°58' W 076°03'1110.8
2014-Oct-15 07:32N 36°52' W 075°51'9 9.4
2014-Oct-15 06:33N 36°48' W 075°41'8912.6
2014-Oct-14 23:31N 37°50' W 074°20'1514.9
2014-Oct-14 22:30N 38°04' W 074°14'1515.2
2014-Oct-14 21:29N 38°18' W 074°05'1415.0
2014-Oct-14 20:31N 38°31' W 073°58'1515.3
2014-Oct-14 19:33N 38°45' W 073°51'1515.4
2014-Oct-14 18:33N 38°59' W 073°43'1615.6
2014-Oct-14 17:33N 39°14' W 073°36'1515.5
2014-Oct-14 16:33N 39°28' W 073°28'1515.3
2014-Oct-14 15:33N 39°43' W 073°24'1615.7
2014-Oct-14 14:33N 39°58' W 073°21'1615.7
2014-Oct-14 13:33N 40°11' W 073°32'1616.0
2014-Oct-14 12:33N 40°24' W 073°45'1414.3
2014-Oct-14 11:34N 40°32' W 074°01'9 9.1
2014-Oct-14 10:33N 40°39' W 074°09'2 2.1
2014-Oct-14 09:32N 40°41' W 074°09'0 0.0
2014-Oct-14 08:32N 40°41' W 074°09'0 0.0
2014-Oct-14 07:32N 40°41' W 074°09'0 0.0
2014-Oct-14 06:32N 40°41' W 074°09'0 0.0
2014-Oct-14 05:32N 40°41' W 074°09'0 0.0
2014-Oct-14 04:29N 40°41' W 074°09'0 0.0
2014-Oct-14 03:32N 40°41' W 074°09'0 0.0
2014-Oct-14 02:26N 40°41' W 074°09'0 0.0
2014-Oct-14 01:29N 40°41' W 074°09'0 0.0
2014-Oct-14 00:29N 40°41' W 074°09'0 0.0
2014-Oct-13 23:32N 40°41' W 074°09'0 0.0
2014-Oct-13 22:29N 40°41' W 074°09'0 0.0
2014-Oct-13 21:32N 40°41' W 074°09'0 0.0
2014-Oct-13 20:32N 40°41' W 074°09'0 0.0
2014-Oct-13 19:32N 40°41' W 074°09'0 0.0
2014-Oct-13 18:32N 40°41' W 074°09'0 0.0
2014-Oct-13 17:32N 40°41' W 074°09'0 0.0
2014-Oct-13 16:32N 40°41' W 074°09'0 0.0
2014-Oct-13 15:32N 40°41' W 074°09'0 0.0
2014-Oct-13 14:32N 40°41' W 074°09'0 0.0
2014-Oct-13 13:29N 40°41' W 074°09'0 0.0
2014-Oct-13 12:32N 40°41' W 074°09'0 0.0
2014-Oct-13 11:32N 40°41' W 074°09'1 0.5
2014-Oct-13 10:33N 40°40' W 074°08'4 3.5
2014-Oct-13 09:33N 40°39' W 074°04'9 8.7
2014-Oct-13 08:32N 40°31' W 073°59'1111.6
2014-Oct-13 07:34N 40°27' W 073°45'1312.6
2014-Oct-13 06:33N 40°28' W 073°28'1514.5
2014-Oct-13 05:32N 40°29' W 073°09'1414.4
2014-Oct-13 04:33N 40°30' W 072°50'1514.6
2014-Oct-13 03:33N 40°30' W 072°31'1414.6
2014-Oct-13 02:34N 40°32' W 072°12'1414.1
2014-Oct-13 01:33N 40°32' W 071°54'1414.3
2014-Oct-13 00:33N 40°32' W 071°35'1414.3
2014-Oct-12 23:33N 40°32' W 071°16'1414.4
2014-Oct-12 22:33N 40°33' W 070°57'1514.5
2014-Oct-12 21:33N 40°33' W 070°38'1515.0
2014-Oct-12 20:33N 40°34' W 070°18'1515.1
2014-Oct-12 19:33N 40°34' W 069°59'1514.9
2014-Oct-12 18:33N 40°35' W 069°39'1515.0
2014-Oct-12 17:33N 40°35' W 069°19'1413.9
2014-Oct-12 16:32N 40°35' W 069°00'1414.9
2014-Oct-12 15:33N 40°36' W 068°41'  
2014-Oct-08 09:26N 44°48' W 030°54'2118.1
2014-Oct-08 08:15N 44°51' W 030°24'3317.9
2014-Oct-08 06:24N 44°56' W 029°38'1717.6
2014-Oct-08 05:25N 44°59' W 029°14'  
Track history (hours):
 
Tides and Currents Weather Stations Pressure Air Temp Water Temp Dewpoint Dewpoint Depression Visibility Wind Speed Wind Dir Waves Ship Positions

Cosco Nagoya

Last reported at 2014-Oct-16 05:26 UTC. Time now 2014-Oct-20 13:10 UTC.
Position N 36°48' W 075°43'.

Length 260 m; draft 11.3 m.

Type: Ship (hazmat cat A). MMSI: 370320000.

Date/timePositionNaut miles runAvg speedWind from/ knotsBaromVisibWave heightAir tempDewpointWater temp
2014-Oct-16 05:26N 36°48' W 075°43'1416.4
2014-Oct-16 04:33N 36°56' W 075°58'1414.2
2014-Oct-16 03:33N 37°00' W 076°15'7 6.6
2014-Oct-16 02:29N 36°55' W 076°20'0 0.0
2014-Oct-16 01:29N 36°55' W 076°20'0 0.0
2014-Oct-15 23:32N 36°55' W 076°20'0 0.0
2014-Oct-15 22:20N 36°55' W 076°20'0 0.0
2014-Oct-15 20:23N 36°55' W 076°20'0 0.0
2014-Oct-15 19:20N 36°55' W 076°20'0 0.0
2014-Oct-15 18:20N 36°55' W 076°20'0 0.0
2014-Oct-15 12:32N 36°55' W 076°20'0 0.0
2014-Oct-15 10:26N 36°55' W 076°20'3 3.7
2014-Oct-15 09:32N 36°58' W 076°20'1413.7
2014-Oct-15 08:32N 36°58' W 076°03'1110.8
2014-Oct-15 07:32N 36°52' W 075°51'9 9.4
2014-Oct-15 06:33N 36°48' W 075°41'8912.6
2014-Oct-14 23:31N 37°50' W 074°20'1514.9
2014-Oct-14 22:30N 38°04' W 074°14'1515.2
2014-Oct-14 21:29N 38°18' W 074°05'1415.0
2014-Oct-14 20:31N 38°31' W 073°58'1515.3
2014-Oct-14 19:33N 38°45' W 073°51'1515.4
2014-Oct-14 18:33N 38°59' W 073°43'1615.6
2014-Oct-14 17:33N 39°14' W 073°36'1515.5
2014-Oct-14 16:33N 39°28' W 073°28'1515.3
2014-Oct-14 15:33N 39°43' W 073°24'1615.7
2014-Oct-14 14:33N 39°58' W 073°21'1615.7
2014-Oct-14 13:33N 40°11' W 073°32'1616.0
2014-Oct-14 12:33N 40°24' W 073°45'1414.3
2014-Oct-14 11:34N 40°32' W 074°01'9 9.1
2014-Oct-14 10:33N 40°39' W 074°09'2 2.1
2014-Oct-14 09:32N 40°41' W 074°09'0 0.0
2014-Oct-14 08:32N 40°41' W 074°09'0 0.0
2014-Oct-14 07:32N 40°41' W 074°09'0 0.0
2014-Oct-14 06:32N 40°41' W 074°09'0 0.0
2014-Oct-14 05:32N 40°41' W 074°09'0 0.0
2014-Oct-14 04:29N 40°41' W 074°09'0 0.0
2014-Oct-14 03:32N 40°41' W 074°09'0 0.0
2014-Oct-14 02:26N 40°41' W 074°09'0 0.0
2014-Oct-14 01:29N 40°41' W 074°09'0 0.0
2014-Oct-14 00:29N 40°41' W 074°09'0 0.0
2014-Oct-13 23:32N 40°41' W 074°09'0 0.0
2014-Oct-13 22:29N 40°41' W 074°09'0 0.0
2014-Oct-13 21:32N 40°41' W 074°09'0 0.0
2014-Oct-13 20:32N 40°41' W 074°09'0 0.0
2014-Oct-13 19:32N 40°41' W 074°09'0 0.0
2014-Oct-13 18:32N 40°41' W 074°09'0 0.0
2014-Oct-13 17:32N 40°41' W 074°09'0 0.0
2014-Oct-13 16:32N 40°41' W 074°09'0 0.0
2014-Oct-13 15:32N 40°41' W 074°09'0 0.0
2014-Oct-13 14:32N 40°41' W 074°09'0 0.0
2014-Oct-13 13:29N 40°41' W 074°09'0 0.0
2014-Oct-13 12:32N 40°41' W 074°09'0 0.0
2014-Oct-13 11:32N 40°41' W 074°09'1 0.5
2014-Oct-13 10:33N 40°40' W 074°08'4 3.5
2014-Oct-13 09:33N 40°39' W 074°04'9 8.7
2014-Oct-13 08:32N 40°31' W 073°59'1111.6
2014-Oct-13 07:34N 40°27' W 073°45'1312.6
2014-Oct-13 06:33N 40°28' W 073°28'1514.5
2014-Oct-13 05:32N 40°29' W 073°09'1414.4
2014-Oct-13 04:33N 40°30' W 072°50'1514.6
2014-Oct-13 03:33N 40°30' W 072°31'1414.6
2014-Oct-13 02:34N 40°32' W 072°12'1414.1
2014-Oct-13 01:33N 40°32' W 071°54'1414.3
2014-Oct-13 00:33N 40°32' W 071°35'1414.3
2014-Oct-12 23:33N 40°32' W 071°16'1414.4
2014-Oct-12 22:33N 40°33' W 070°57'1514.5
2014-Oct-12 21:33N 40°33' W 070°38'1515.0
2014-Oct-12 20:33N 40°34' W 070°18'1515.1
2014-Oct-12 19:33N 40°34' W 069°59'1514.9
2014-Oct-12 18:33N 40°35' W 069°39'1515.0
2014-Oct-12 17:33N 40°35' W 069°19'1413.9
2014-Oct-12 16:32N 40°35' W 069°00'1414.9
2014-Oct-12 15:33N 40°36' W 068°41'  
2014-Oct-08 09:26N 44°48' W 030°54'2118.1
2014-Oct-08 08:15N 44°51' W 030°24'3317.9
2014-Oct-08 06:24N 44°56' W 029°38'1717.6
2014-Oct-08 05:25N 44°59' W 029°14'  

Dump ship's entire track history